Tiempo atmosférico en la estación meteorológica de Espolla, Girona (94 m.)



Fecha
DESCASC
Temp. máxima en grados centígrados (hora)
DESCASC
Temp. mínima en grados centígrados (hora)
DESCASC
Temp. media en grados centígrados
DESCASC
Racha de viento máxima en m/sg (hora)
DESCASC
Velocidad máxima media en intervalos de 10 minutos(hora)
DESCASC
Precipitaciones diarias en mm
DESCASC
Precipitaciones de 00:00 a 06:00 en mm
DESCASC
Precipitaciones de 06:00 a 12:00 en mm
DESCASC
Precipitaciones de 12:00 a 18:00 en mm
DESCASC
Precipitaciones de 18:00 a 24:00 en mm
DESCASC
14-11-2019 11.1 (09:20) 2.8 (23:00) 7 8.61 (13:10) 5.28 (13:10) 4.6 0 1.6 3 0
13-11-2019 13.7 (13:50) 7 (07:30) 10.3 16.11 (16:50) 8.89 (16:50) 0 0 0 0 0
12-11-2019 16.9 (14:30) 10.3 (00:20) 13.6 21.67 (08:40) 11.39 (00:40) 0 0 0 0 0
11-11-2019 18.4 (14:00) 9.3 (00:00) 13.8 25.28 (21:40) 14.72 (21:50) 0 0 0 0 0
10-11-2019 14.3 (14:40) 9.3 (00:00) 11.8 23.61 (04:50) 12.22 (05:00) 0 0 0 0 0
09-11-2019 16.1 (14:40) 8.8 (00:00) 12.5 18.61 (00:30) 9.44 (04:50) 0 0 0 0 0
08-11-2019 14.7 (13:50) 5.5 (00:00) 10.1 16.11 (23:59) 7.78 (23:30) 6 0 0.2 5.6 0.2
07-11-2019 15.6 (10:30) 6.1 (00:00) 10.9 15 (18:20) 6.67 (18:20) 6.2 0 0 3.4 2.8
06-11-2019 18.1 (13:30) 6.8 (00:00) 12.5 14.72 (06:30) 7.22 (06:30) 0 0 0 0 0
05-11-2019 17.4 (14:40) 8.2 (00:00) 12.8 8.06 (16:30) 4.44 (16:30) 11.2 5.4 0 4.2 1.6
04-11-2019 23.1 (14:40) 8.5 (00:00) 15.8 8.61 (15:30) 5 (15:30) 1 0 0 0 1
03-11-2019 19 (14:20) 10.7 (00:00) 14.8 24.17 (09:20) 14.44 (09:20) 1 0.2 0.8 0 0
02-11-2019 22.6 (15:30) 12 (00:00) 17.3 5.83 (13:50) 3.89 (18:40) 1 1 0 0 0
01-11-2019 19.6 (11:30) 11.2 (00:00) 15.4 4.44 (07:40) 2.5 (05:50) 0 0 0 0 0
31-10-2019 23.3 (15:20) 14.8 (00:00) 19 17.5 (18:00) 8.89 (17:50) 0.4 0.2 0.2 0 0
30-10-2019 24 (15:10) 12.8 (00:00) 18.4 4.72 (12:20) 2.78 (21:30) 0 0 0 0 0
29-10-2019 21.7 (13:20) 12.7 (00:00) 17.2 4.44 (14:40) 2.78 (14:50) 0 0 0 0 0
28-10-2019 19.2 (15:20) 14.2 (00:00) 16.7 3.89 (12:20) 2.5 (12:20) 0 0 0 0 0
27-10-2019 22.1 (14:30) 11 (00:00) 16.6 6.11 (15:30) 3.89 (15:30) 0 0 0 0 0
26-10-2019 22.8 (12:40) 11.5 (00:00) 17.1 6.67 (15:30) 3.61 (14:20) 0 0 0 0 0
25-10-2019 24.4 (17:10) 11.1 (00:00) 17.8 12.78 (11:20) 6.39 (09:30) 0 0 0 0 0
24-10-2019 20.8 (14:30) 8.8 (00:00) 14.8 6.94 (15:10) 4.17 (15:00) 0 0 0 0 0
23-10-2019 19.3 (02:30) 12 (00:00) 15.6 22.22 (03:20) 9.72 (03:20) 110.2 91.4 17.2 1.6 0
22-10-2019 19.4 (22:30) 12.8 (00:00) 16.1 14.72 (22:00) 7.5 (22:10) 75 1.2 8.4 51.4 14
21-10-2019 16.9 (16:00) 12.6 (00:00) 14.8 5.28 (04:10) 3.89 (02:20) 0.8 0 0 0 0.8
20-10-2019 24.2 (13:40) 13.6 (00:00) 18.9 11.11 (12:10) 6.11 (16:40) 7.4 0 4.4 3 0
19-10-2019 27.8 (15:00) 13.2 (00:00) 20.5 13.61 (14:50) 8.06 (14:50) 0 0 0 0 0
18-10-2019 22.9 (13:00) 13.1 (00:00) 18 5.83 (13:40) 3.61 (14:20) 0 0 0 0 0

Gráficas

Temp. máximas Temp. mínimas Temp. medias Precipitaciones Rachas de viento máximas Velocidades máximas media en intervalos de 10 minutos

Datos horarios

Fecha y hora oficial Temperatura (ºC) Velocidad del viento (km/h) Dirección del viento Racha (km/h) Dirección de racha Precipitación (mm) Presión (hPa) Tendencia (hPa) Humedad (%)
2019-11-16 23:00:00 4.4 3 Norte 9 Norte 0 -- -- 85
2019-11-16 22:00:00 5.7 6 Nordeste 17 Este 0 -- -- 82
2019-11-16 21:00:00 5.8 11 Nordeste 20 Nordeste 0 -- -- 82
2019-11-16 20:00:00 6.5 11 Nordeste 18 Nordeste 0 -- -- 80
2019-11-16 19:00:00 7.6 10 Nordeste 15 Nordeste 0 -- -- 77
2019-11-16 18:00:00 6.8 5 Nordeste 8 Nordeste 0 -- -- 80
2019-11-16 17:00:00 10.4 5 Sudeste 11 Sudeste 0 -- -- 66
2019-11-16 16:00:00 11.5 7 Sudeste 17 Sur 0 -- -- 58
2019-11-16 15:00:00 12.9 5 Sudoeste 15 Sudeste 0 -- -- 53
2019-11-16 14:00:00 12.5 8 Sudoeste 17 Sur 0 -- -- 53
2019-11-16 13:00:00 12 9 Sur 19 Sudoeste 0 -- -- 55
2019-11-16 12:00:00 11.8 6 Sur 11 Sudoeste 0 -- -- 54
2019-11-16 11:00:00 10.9 3 Oeste 8 Sudoeste 0 -- -- 55
2019-11-16 10:00:00 9.4 0 Calma 6 Sudeste 0 -- -- 60
2019-11-16 09:00:00 4.3 2 Nordeste 6 Norte 0 -- -- 88
2019-11-16 08:00:00 1.7 0 Calma 9 Norte 0 -- -- 87
2019-11-16 07:00:00 3.9 5 Norte 21 Nordeste 0 -- -- 78
2019-11-16 06:00:00 2.8 7 Nordeste 13 Nordeste 0 -- -- 85
2019-11-16 05:00:00 1.6 3 Nordeste 9 Nordeste 0 -- -- 88
2019-11-16 04:00:00 2 3 Nordeste 13 Nordeste 0 -- -- 89
2019-11-16 03:00:00 1.8 3 Nordeste 8 Norte 0 -- -- 90
2019-11-16 02:00:00 2.4 4 Norte 8 Norte 0 -- -- 87
2019-11-16 01:00:00 4.2 0 Calma 15 Nordeste 0 -- -- 79
2019-11-16 00:00:00 5.9 9 Nordeste 21 Norte 0 -- -- 75
2019-11-15 23:00:00 6.1 2 Norte 14 Nordeste 0 -- -- 77
2019-11-15 22:00:00 7.4 7 Norte 32 Nordeste 0 -- -- 72
2019-11-15 21:00:00 7.6 16 Norte 32 Norte 0.2 -- -- 77
2019-11-15 20:00:00 6 7 Nordeste 17 Nordeste 0 -- -- 89
2019-11-15 19:00:00 6.7 5 Nordeste 12 Nordeste 0 -- -- 89
2019-11-15 18:00:00 7.5 5 Norte 7 Norte 0 -- -- 87
2019-11-15 17:00:00 9.8 2 Sudoeste 13 Sur 0 -- -- 78
2019-11-15 16:00:00 9.8 5 Sur 16 Sudeste 0 -- -- 78
2019-11-15 15:00:00 10.8 10 Sur 17 Sur 0 -- -- 72
2019-11-15 14:00:00 10.5 7 Sudoeste 12 Sudeste 0 -- -- 71
2019-11-15 13:00:00 10.3 3 Sur 9 Sur 0 -- -- 70
2019-11-15 12:00:00 9.1 4 Sur 12 Sur 0 -- -- 82
2019-11-15 11:00:00 9.2 2 Sur 9 Sur 0 -- -- 83
2019-11-15 10:00:00 8.7 3 Nordeste 5 Este 0 -- -- 83
2019-11-15 09:00:00 6.2 3 Nordeste 13 Nordeste 0 -- -- 91
2019-11-15 08:00:00 4.9 9 Nordeste 21 Nordeste 0 -- -- 89
2019-11-15 07:00:00 3.9 8 Nordeste 15 Nordeste 0 -- -- 91
2019-11-15 06:00:00 3.6 6 Nordeste 15 Nordeste 0 -- -- 93
2019-11-15 05:00:00 3.6 3 Nordeste 14 Nordeste 0 -- -- 93
2019-11-15 04:00:00 2.7 0 Calma 8 Norte 0 -- -- 93
2019-11-15 03:00:00 2.8 4 Norte 13 Norte 0 -- -- 93
2019-11-15 02:00:00 2.7 7 Nordeste 15 Nordeste 0 -- -- 92
2019-11-15 01:00:00 2.5 4 Nordeste 10 Nordeste 0 -- -- 92
2019-11-15 00:00:00 2.9 7 Nordeste 11 Nordeste 0 -- -- 93
2019-11-14 23:00:00 2.8 3 Norte 12 Nordeste 0 -- -- 92
2019-11-14 22:00:00 3.8 3 Nordeste 9 Nordeste 0 -- -- 90
2019-11-14 21:00:00 5.8 3 Norte 15 Sur 0 -- -- 87
2019-11-14 20:00:00 6.5 5 Sudoeste 22 Noroeste 0 -- -- 82
2019-11-14 19:00:00 6.3 3 Nordeste 19 Nordeste 0 -- -- 87
2019-11-14 18:00:00 6.4 5 Sur 12 Nordeste 0 -- -- 91
2019-11-14 17:00:00 6.6 2 Norte 6 Este 0.4 -- -- 91
2019-11-14 16:00:00 6.8 5 Norte 11 Sur 1 -- -- 90
2019-11-14 15:00:00 7 7 Sur 18 Sur 0.4 -- -- 85
2019-11-14 14:00:00 7.3 6 Este 31 Norte 1 -- -- 82
2019-11-14 13:00:00 9.2 8 Noroeste 19 Sur 0.2 -- -- 76
2019-11-14 12:00:00 9 7 Sur 19 Nordeste 0.2 -- -- 83
2019-11-14 11:00:00 8.6 8 Este 21 Norte 1.4 -- -- 82
2019-11-14 10:00:00 11 5 Nordeste 22 Nordeste 0 -- -- 63
2019-11-14 09:00:00 10.8 14 Nordeste 23 Nordeste 0 -- -- 65
2019-11-14 08:00:00 9 8 Nordeste 12 Nordeste 0 -- -- 79
2019-11-14 07:00:00 7.8 3 Nordeste 9 Nordeste 0 -- -- 86
2019-11-14 06:00:00 6.9 5 Nordeste 9 Este 0 -- -- 88
2019-11-14 05:00:00 7 0 Calma 5 Este 0 -- -- 85
2019-11-14 04:00:00 7.5 3 Noroeste 8 Nordeste 0 -- -- 79
2019-11-14 03:00:00 8.1 0 Calma 7 Norte 0 -- -- 82
2019-11-14 02:00:00 7.8 2 Este 7 Este 0 -- -- 81
2019-11-14 01:00:00 7.9 4 Nordeste 8 Nordeste 0 -- -- 77
2019-11-14 00:00:00 7 5 Norte 7 Norte 0 -- -- 75
2019-11-13 23:00:00 8.7 0 Calma 5 Este 0 -- -- 75
2019-11-13 22:00:00 8.9 3 Nordeste 8 Este 0 -- -- 62
2019-11-13 21:00:00 10.6 6 Sur 26 Noroeste 0 -- -- 57
2019-11-13 20:00:00 11.5 18 Norte 35 Norte 0 -- -- 50
2019-11-13 19:00:00 11.7 18 Norte 57 Norte 0 -- -- 47
2019-11-13 18:00:00 11.6 26 Norte 53 Norte 0 -- -- 51
2019-11-13 17:00:00 11.7 27 Norte 58 Norte 0 -- -- 55
2019-11-13 16:00:00 13 22 Norte 52 Norte 0 -- -- 55
2019-11-13 15:00:00 13.6 25 Norte 52 Norte 0 -- -- 57
2019-11-13 14:00:00 13.6 30 Norte 54 Norte 0 -- -- 57
2019-11-13 13:00:00 13 28 Norte 50 Norte 0 -- -- 59
2019-11-13 12:00:00 13.2 19 Noroeste 40 Noroeste 0 -- -- 58
2019-11-13 11:00:00 11.8 17 Norte 30 Norte 0 -- -- 59
2019-11-13 10:00:00 11.3 16 Norte 28 Norte 0 -- -- 61
2019-11-13 09:00:00 9.6 3 Sudoeste 9 Sudeste 0 -- -- 77
2019-11-13 08:00:00 7.6 2 Este 8 Este 0 -- -- 82
2019-11-13 07:00:00 8 5 Noroeste 13 Noroeste 0 -- -- 77
2019-11-13 06:00:00 9 7 Norte 18 Norte 0 -- -- 72
2019-11-13 05:00:00 10.4 11 Norte 26 Norte 0 -- -- 67
2019-11-13 04:00:00 7.6 4 Norte 10 Nordeste 0 -- -- 80
2019-11-13 03:00:00 7.6 10 Norte 14 Norte 0 -- -- 78
2019-11-13 02:00:00 8 0 Calma 18 Noroeste 0 -- -- 75
2019-11-13 01:00:00 11.2 12 Noroeste 19 Noroeste 0 -- -- 65
2019-11-13 00:00:00 11.9 4 Sur 24 Este 0 -- -- 62
2019-11-12 23:00:00 11.2 12 Oeste 21 Oeste 0 -- -- 65
2019-11-12 22:00:00 11.6 6 Oeste 33 Norte 0 -- -- 60
2019-11-12 21:00:00 12.6 16 Norte 32 Noroeste 0 -- -- 54
2019-11-12 20:00:00 12.5 9 Norte 41 Norte 0 -- -- 55
2019-11-12 19:00:00 13.6 19 Norte 51 Norte 0 -- -- 48
2019-11-12 18:00:00 13.7 24 Norte 50 Norte 0 -- -- 47
2019-11-12 17:00:00 15.1 18 Norte 43 Noroeste 0 -- -- 45
2019-11-12 16:00:00 16 9 Nordeste 34 Nordeste 0 -- -- 42
2019-11-12 15:00:00 16.4 19 Norte 39 Nordeste 0 -- -- 41
2019-11-12 14:00:00 16.8 11 Noroeste 37 Sudoeste 0 -- -- 42
2019-11-12 13:00:00 16.1 10 Sudeste 61 Noroeste 0 -- -- 41
2019-11-12 12:00:00 14.9 15 Noroeste 50 Norte 0 -- -- 43
2019-11-12 11:00:00 14.3 21 Norte 74 Norte 0 -- -- 44
2019-11-12 10:00:00 13.9 10 Sur 55 Norte 0 -- -- 45
2019-11-12 09:00:00 12.4 26 Norte 78 Norte 0 -- -- 49
2019-11-12 08:00:00 11.5 25 Norte 60 Norte 0 -- -- 50
2019-11-12 07:00:00 11.1 31 Norte 67 Norte 0 -- -- 51
2019-11-12 06:00:00 10.3 22 Norte 57 Noroeste 0 -- -- 58
2019-11-12 05:00:00 10.5 18 Norte 52 Norte 0 -- -- 57
2019-11-12 04:00:00 10.6 18 Norte 56 Noroeste 0 -- -- 57
2019-11-12 03:00:00 10.5 31 Norte 62 Norte 0 -- -- 56
2019-11-12 02:00:00 10.6 32 Norte 67 Norte 0 -- -- 56
2019-11-12 01:00:00 10.6 38 Norte 71 Nordeste 0 -- -- 60
2019-11-12 00:00:00 10.7 45 Norte 84 Norte 0 -- -- 57
2019-11-11 23:00:00 11.5 38 Norte 85 Noroeste 0 -- -- 44
2019-11-11 22:00:00 12.5 49 Norte 91 Norte 0 -- -- 42
2019-11-11 21:00:00 13.4 44 Norte 91 Noroeste 0 -- -- 31
2019-11-11 20:00:00 13.4 34 Norte 56 Norte 0 -- -- 58
2019-11-11 19:00:00 14.1 20 Norte 41 Noroeste 0 -- -- 58
2019-11-11 18:00:00 14.7 21 Norte 39 Norte 0 -- -- 43
2019-11-11 17:00:00 14.2 14 Nordeste 25 Norte 0 -- -- 47
2019-11-11 16:00:00 16.1 8 Este 28 Este 0 -- -- 40
2019-11-11 15:00:00 16.5 15 Nordeste 26 Nordeste 0 -- -- 38
2019-11-11 14:00:00 18.4 4 Sudoeste 13 Sur 0 -- -- 32
2019-11-11 13:00:00 16.9 9 Sudoeste 26 Noroeste 0 -- -- 33
2019-11-11 12:00:00 15.7 14 Norte 30 Norte 0 -- -- 35
2019-11-11 11:00:00 14 9 Oeste 27 Sudeste 0 -- -- 34
2019-11-11 10:00:00 12.6 8 Sudeste 25 Este 0 -- -- 41
2019-11-11 09:00:00 11.8 8 Sur 29 Sudeste 0 -- -- 40
2019-11-11 08:00:00 11.7 13 Sudoeste 59 Noroeste 0 -- -- 37
2019-11-11 07:00:00 11.4 31 Norte 59 Norte 0 -- -- 39
2019-11-11 06:00:00 10.5 27 Norte 60 Norte 0 -- -- 45
2019-11-11 05:00:00 10.5 15 Norte 47 Nordeste 0 -- -- 44
2019-11-11 04:00:00 9.7 25 Norte 51 Noroeste 0 -- -- 50
2019-11-11 03:00:00 9.6 28 Norte 66 Norte 0 -- -- 52
2019-11-11 02:00:00 10.1 36 Norte 64 Norte 0 -- -- 49
2019-11-11 01:00:00 9.7 17 Norte 49 Norte 0 -- -- 53
2019-11-11 00:00:00 9.3 11 Sur 56 Norte 0 -- -- 58
2019-11-10 23:00:00 9.4 28 Norte 61 Norte 0 -- -- 59
2019-11-10 22:00:00 9.6 22 Norte 69 Norte 0 -- -- 60
2019-11-10 21:00:00 10 35 Norte 81 Norte 0 -- -- 55
2019-11-10 20:00:00 9.7 22 Norte 48 Norte 0 -- -- 60
2019-11-10 19:00:00 9.8 10 Sur 37 Sur 0 -- -- 60
2019-11-10 18:00:00 10.5 13 Sur 35 Sudeste 0 -- -- 59
2019-11-10 17:00:00 11.8 18 Noroeste 44 Oeste 0 -- -- 55
2019-11-10 16:00:00 13 19 Noroeste 39 Noroeste 0 -- -- 49
2019-11-10 15:00:00 13.4 13 Norte 29 Noroeste 0 -- -- 49
2019-11-10 14:00:00 13.7 12 Oeste 37 Noroeste 0 -- -- 49
2019-11-10 13:00:00 12.8 8 Noroeste 30 Este 0 -- -- 49
2019-11-10 12:00:00 12.5 15 Sudoeste 44 Sur 0 -- -- 46
2019-11-10 11:00:00 12.5 15 Sur 47 Noroeste 0 -- -- 48
2019-11-10 10:00:00 11.2 11 Nordeste 63 Noroeste 0 -- -- 51
2019-11-10 09:00:00 10.6 38 Norte 75 Noroeste 0 -- -- 52
2019-11-10 08:00:00 10.4 32 Norte 71 Norte 0 -- -- 53
2019-11-10 07:00:00 10.6 31 Norte 72 Norte 0 -- -- 52
2019-11-10 06:00:00 11 40 Norte 76 Norte 0 -- -- 53
2019-11-10 05:00:00 11.3 44 Norte 85 Norte 0 -- -- 51
2019-11-10 04:00:00 11.8 30 Norte 62 Norte 0 -- -- 49
2019-11-10 03:00:00 11.7 17 Noroeste 45 Norte 0 -- -- 56
2019-11-10 02:00:00 12.3 28 Norte 59 Norte 0 -- -- 53
2019-11-10 01:00:00 12 18 Norte 41 Norte 0 -- -- 62
2019-11-10 00:00:00 9.7 0 Calma 9 Norte 0 -- -- 80
2019-11-09 23:00:00 9.6 3 Nordeste 8 Nordeste 0 -- -- 82
2019-11-09 22:00:00 9.7 0 Calma 16 Nordeste 0 -- -- 81
2019-11-09 21:00:00 9.7 10 Nordeste 14 Nordeste 0 -- -- 80
2019-11-09 20:00:00 9.3 4 Nordeste 13 Nordeste 0 -- -- 81
2019-11-09 19:00:00 8.8 4 Nordeste 10 Nordeste 0 -- -- 81
2019-11-09 18:00:00 10.2 3 Nordeste 5 Este 0 -- -- 75
2019-11-09 17:00:00 13.3 0 Calma 14 Sudoeste 0 -- -- 62
2019-11-09 16:00:00 14.8 10 Sudoeste 18 Sudoeste 0 -- -- 51
2019-11-09 15:00:00 15.9 6 Norte 19 Noroeste 0 -- -- 49
2019-11-09 14:00:00 15.7 10 Noroeste 27 Norte 0 -- -- 52
2019-11-09 13:00:00 14.8 18 Norte 37 Norte 0 -- -- 52
2019-11-09 12:00:00 14.2 21 Norte 43 Norte 0 -- -- 53
2019-11-09 11:00:00 13.7 22 Norte 53 Noroeste 0 -- -- 49
2019-11-09 10:00:00 12.7 24 Norte 51 Noroeste 0 -- -- 46
2019-11-09 09:00:00 11.8 22 Norte 47 Noroeste 0 -- -- 45
2019-11-09 08:00:00 9.8 17 Norte 41 Norte 0 -- -- 53
2019-11-09 07:00:00 9.3 27 Norte 50 Norte 0 -- -- 58
2019-11-09 06:00:00 10.1 27 Norte 59 Norte 0 -- -- 52
2019-11-09 05:00:00 11 34 Norte 66 Norte 0 -- -- 47
2019-11-09 04:00:00 10.8 27 Norte 64 Noroeste 0 -- -- 50
2019-11-09 03:00:00 10.6 26 Norte 65 Norte 0 -- -- 53
2019-11-09 02:00:00 10.4 28 Noroeste 62 Norte 0 -- -- 54
2019-11-09 01:00:00 9.7 28 Norte 67 Noroeste 0 -- -- 59
2019-11-09 00:00:00 9.6 28 Norte 58 Norte 0 -- -- 61
2019-11-08 23:00:00 9.4 21 Norte 47 Norte 0 -- -- 64
2019-11-08 22:00:00 7.8 11 Norte 22 Nordeste 0 -- -- 79
2019-11-08 21:00:00 6.5 3 Norte 14 Nordeste 0 -- -- 91
2019-11-08 20:00:00 6.5 5 Norte 9 Norte 0.2 -- -- 93
2019-11-08 19:00:00 7.1 3 Norte 12 Nordeste 0 -- -- 90
2019-11-08 18:00:00 7.8 8 Oeste 54 Norte 5.6 -- -- 84
2019-11-08 17:00:00 11.9 0 Calma 6 Sur 0 -- -- 78
2019-11-08 16:00:00 12.1 7 Sudeste 17 Sur 0 -- -- 77
2019-11-08 15:00:00 13.5 11 Sur 19 Sur 0 -- -- 64
2019-11-08 14:00:00 14.7 9 Sudoeste 20 Sudoeste 0 -- -- 57
2019-11-08 13:00:00 13.6 7 Sudoeste 13 Oeste 0 -- -- 61
2019-11-08 12:00:00 13.4 4 Sudoeste 10 Noroeste 0.2 -- -- 58
2019-11-08 11:00:00 13.2 3 Noroeste 9 Sur 0 -- -- 55
2019-11-08 10:00:00 11.8 0 Calma 10 Nordeste 0 -- -- 61
2019-11-08 09:00:00 8.5 3 Nordeste 11 Nordeste 0 -- -- 83
2019-11-08 08:00:00 5.5 5 Norte 9 Nordeste 0 -- -- 90
2019-11-08 07:00:00 7.2 3 Este 10 Norte 0 -- -- 91
2019-11-08 06:00:00 7.6 0 Calma 13 Nordeste 0 -- -- 91
2019-11-08 05:00:00 7.6 6 Nordeste 13 Nordeste 0 -- -- 90
2019-11-08 04:00:00 6.9 4 Nordeste 9 Norte 0 -- -- 94
2019-11-08 03:00:00 6.8 3 Este 8 Este 0 -- -- 92
2019-11-08 02:00:00 7.1 10 Nordeste 13 Nordeste 0 -- -- 89
2019-11-08 01:00:00 7.2 3 Nordeste 13 Norte 0 -- -- 87
2019-11-08 00:00:00 6.4 3 Este 12 Norte 0 -- -- 91
2019-11-07 23:00:00 6.2 3 Nordeste 8 Norte 0 -- -- 92
2019-11-07 22:00:00 7.5 4 Este 9 Sudoeste 0 -- -- 91
2019-11-07 21:00:00 7.8 4 Sudoeste 13 Sur 0.2 -- -- 90
2019-11-07 20:00:00 8.2 6 Sudoeste 33 Norte 1 -- -- 86
2019-11-07 19:00:00 8.5 23 Norte 54 Norte 1.6 -- -- 82
2019-11-07 18:00:00 9.7 17 Norte 37 Norte 0.2 -- -- 76
2019-11-07 17:00:00 9.4 9 Este 15 Sudeste 0.6 -- -- 90
2019-11-07 16:00:00 10.1 3 Este 12 Nordeste 1 -- -- 90
2019-11-07 15:00:00 10.9 5 Este 10 Nordeste 1.2 -- -- 87
2019-11-07 14:00:00 12.8 6 Norte 13 Noroeste 0.4 -- -- 81
2019-11-07 13:00:00 14.1 8 Sur 13 Sur 0 -- -- 72
2019-11-07 12:00:00 14.6 9 Sur 17 Sur 0 -- -- 67
2019-11-07 11:00:00 15.2 12 Sudeste 25 Noroeste 0 -- -- 65
2019-11-07 10:00:00 13.3 5 Oeste 13 Sur 0 -- -- 71
2019-11-07 09:00:00 10.9 6 Sur 13 Sur 0 -- -- 87
2019-11-07 08:00:00 8.1 3 Sudoeste 8 Noroeste 0 -- -- 94
2019-11-07 07:00:00 8.6 0 Calma 13 Nordeste 0 -- -- 92
2019-11-07 06:00:00 7.7 5 Nordeste 13 Nordeste 0 -- -- 95
2019-11-07 05:00:00 7 5 Norte 10 Nordeste 0 -- -- 94
2019-11-07 04:00:00 7.3 3 Nordeste 7 Nordeste 0 -- -- 93
2019-11-07 03:00:00 8.5 0 Calma 9 Nordeste 0 -- -- 93
2019-11-07 02:00:00 9.2 3 Norte 9 Nordeste 0 -- -- 91
2019-11-07 01:00:00 9 3 Norte 11 Nordeste 0 -- -- 90
2019-11-07 00:00:00 9.9 3 Nordeste 10 Nordeste 0 -- -- 83
2019-11-06 23:00:00 10.9 3 Norte 13 Nordeste 0 -- -- 79
2019-11-06 22:00:00 11.8 9 Nordeste 14 Nordeste 0 -- -- 75
2019-11-06 21:00:00 11.7 5 Norte 17 Nordeste 0 -- -- 73
2019-11-06 20:00:00 10.7 4 Nordeste 6 Norte 0 -- -- 79
2019-11-06 19:00:00 12.2 4 Sur 13 Nordeste 0 -- -- 70
2019-11-06 18:00:00 13.7 3 Nordeste 22 Nordeste 0 -- -- 59
2019-11-06 17:00:00 14.9 10 Norte 31 Norte 0 -- -- 56
2019-11-06 16:00:00 16.5 16 Norte 35 Norte 0 -- -- 51
2019-11-06 15:00:00 15.7 17 Norte 35 Norte 0 -- -- 54
2019-11-06 14:00:00 17.5 15 Norte 32 Norte 0 -- -- 50
2019-11-06 13:00:00 17.8 10 Norte 28 Norte 0 -- -- 45
2019-11-06 12:00:00 17.5 14 Noroeste 36 Noroeste 0 -- -- 46
2019-11-06 11:00:00 16.4 13 Norte 41 Noroeste 0 -- -- 49
2019-11-06 10:00:00 15.7 14 Noroeste 29 Norte 0 -- -- 49
2019-11-06 09:00:00 14.9 12 Noroeste 27 Norte 0 -- -- 51
2019-11-06 08:00:00 13.2 14 Norte 47 Norte 0 -- -- 55
2019-11-06 07:00:00 13.4 26 Norte 53 Noroeste 0 -- -- 52
2019-11-06 06:00:00 12.7 18 Noroeste 38 Noroeste 0 -- -- 59
2019-11-06 05:00:00 7.5 3 Norte 10 Norte 0 -- -- 93
2019-11-06 04:00:00 7.3 0 Calma 13 Nordeste 0 -- -- 90
2019-11-06 03:00:00 8.8 6 Nordeste 19 Nordeste 0 -- -- 89
2019-11-06 02:00:00 9.1 12 Nordeste 19 Nordeste 0 -- -- 90
2019-11-06 01:00:00 8.4 9 Nordeste 16 Nordeste 0 -- -- 93
2019-11-06 00:00:00 8.2 4 Nordeste 13 Norte 0.2 -- -- 93
2019-11-05 23:00:00 8.6 8 Norte 12 Norte 0 -- -- 93
2019-11-05 22:00:00 9 5 Nordeste 12 Norte 0 -- -- 94
2019-11-05 21:00:00 9.5 5 Norte 18 Nordeste 0 -- -- 93
2019-11-05 20:00:00 10.1 13 Nordeste 20 Nordeste 0.4 -- -- 92
2019-11-05 19:00:00 10.9 5 Norte 8 Norte 1 -- -- 92
2019-11-05 18:00:00 11.2 0 Calma 14 Nordeste 0 -- -- 90
2019-11-05 17:00:00 11 9 Nordeste 29 Norte 4.2 -- -- 86
2019-11-05 16:00:00 16.7 8 Sudeste 18 Sur 0 -- -- 64
2019-11-05 15:00:00 17 7 Sudeste 15 Oeste 0 -- -- 64
2019-11-05 14:00:00 16.8 11 Sudoeste 19 Sur 0 -- -- 60
2019-11-05 13:00:00 16.2 3 Sudoeste 10 Sur 0 -- -- 66
2019-11-05 12:00:00 13.8 4 Sudeste 9 Noroeste 0 -- -- 80
2019-11-05 11:00:00 13 0 Calma 6 Nordeste 0 -- -- 85
2019-11-05 10:00:00 12 5 Nordeste 9 Nordeste 0 -- -- 95
2019-11-05 09:00:00 11.1 4 Nordeste 7 Este 0 -- -- 96
2019-11-05 08:00:00 10.7 3 Nordeste 4 Nordeste 0 -- -- 96
2019-11-05 07:00:00 10.9 0 Calma 8 Norte 0 -- -- 96
2019-11-05 06:00:00 10.9 3 Nordeste 5 Nordeste 0.2 -- -- 95
2019-11-05 05:00:00 11 0 Calma 6 Oeste 0 -- -- 95
2019-11-05 04:00:00 11.1 4 Oeste 8 Este 0.4 -- -- 94
2019-11-05 03:00:00 11.4 0 Calma 8 Sudeste 2.6 -- -- 93
2019-11-05 02:00:00 11.5 4 Sudeste 9 Norte 2.2 -- -- 90
2019-11-05 01:00:00 12.5 2 Noroeste 22 Norte 0 -- -- 81
2019-11-05 00:00:00 12.3 6 Nordeste 18 Este 0.6 -- -- 87
2019-11-04 23:00:00 13.3 7 Norte 15 Norte 0.2 -- -- 88
2019-11-04 22:00:00 14 5 Nordeste 17 Nordeste 0.2 -- -- 82
2019-11-04 21:00:00 15.7 9 Nordeste 23 Nordeste 0 -- -- 72
2019-11-04 20:00:00 17.1 8 Nordeste 22 Nordeste 0 -- -- 64
2019-11-04 19:00:00 17.3 12 Nordeste 27 Nordeste 0 -- -- 73
2019-11-04 18:00:00 18.4 12 Este 22 Este 0 -- -- 61
2019-11-04 17:00:00 19.9 13 Nordeste 24 Nordeste 0 -- -- 55
2019-11-04 16:00:00 21.1 15 Nordeste 31 Este 0 -- -- 48
2019-11-04 15:00:00 22.3 17 Nordeste 28 Este 0 -- -- 43
2019-11-04 14:00:00 21.3 3 Sur 8 Sudeste 0 -- -- 51
2019-11-04 13:00:00 18.8 5 Sur 15 Sudoeste 0 -- -- 57
2019-11-04 12:00:00 17.8 4 Sudoeste 12 Sudoeste 0 -- -- 59
2019-11-04 11:00:00 15.8 4 Sudoeste 13 Sudoeste 0 -- -- 72
2019-11-04 10:00:00 16.9 6 Sur 13 Este 0 -- -- 57
2019-11-04 09:00:00 12.7 3 Sur 12 Norte 0 -- -- 83
2019-11-04 08:00:00 8.8 3 Nordeste 6 Nordeste 0 -- -- 95
2019-11-04 07:00:00 9.2 3 Norte 10 Nordeste 0 -- -- 93
2019-11-04 06:00:00 10 5 Este 16 Nordeste 0 -- -- 94
2019-11-04 05:00:00 9.6 7 Nordeste 13 Nordeste 0 -- -- 94
2019-11-04 04:00:00 10.4 4 Sudeste 17 Nordeste 0 -- -- 91
2019-11-04 03:00:00 11.8 5 Nordeste 9 Nordeste 0 -- -- 93
2019-11-04 02:00:00 10.9 4 Nordeste 7 Nordeste 0 -- -- 92
2019-11-04 01:00:00 11.4 2 Norte 10 Nordeste 0 -- -- 89
2019-11-04 00:00:00 11 3 Nordeste 9 Nordeste 0 -- -- 88
2019-11-03 23:00:00 10.9 4 Norte 15 Nordeste 0 -- -- 84
2019-11-03 22:00:00 11.1 5 Nordeste 17 Nordeste 0 -- -- 81
2019-11-03 21:00:00 12.1 13 Nordeste 20 Nordeste 0 -- -- 79
2019-11-03 20:00:00 12 4 Nordeste 13 Nordeste 0 -- -- 83
2019-11-03 19:00:00 13.8 4 Norte 14 Sudeste 0 -- -- 78
2019-11-03 18:00:00 16 9 Sudeste 20 Sur 0 -- -- 69
2019-11-03 17:00:00 17.9 4 Este 17 Sudeste 0 -- -- 63
2019-11-03 16:00:00 18.9 10 Sudeste 26 Sudoeste 0 -- -- 56
2019-11-03 15:00:00 18.8 18 Sudoeste 26 Sudoeste 0 -- -- 56
2019-11-03 14:00:00 18.6 9 Sudoeste 40 Noroeste 0 -- -- 63
2019-11-03 13:00:00 18.3 26 Noroeste 45 Norte 0 -- -- 42
2019-11-03 12:00:00 13.9 5 Este 46 Noroeste 0.2 -- -- 80
2019-11-03 11:00:00 15.5 24 Noroeste 53 Noroeste 0.4 -- -- 56
2019-11-03 10:00:00 16.4 24 Norte 87 Norte 0 -- -- 48
2019-11-03 09:00:00 16.1 46 Norte 82 Norte 0.2 -- -- 58
2019-11-03 08:00:00 12.3 5 Nordeste 16 Nordeste 0 -- -- 89
2019-11-03 07:00:00 12.2 6 Norte 14 Nordeste 0 -- -- 89
2019-11-03 06:00:00 13.8 2 Este 11 Nordeste 0 -- -- 86
2019-11-03 05:00:00 15 2 Oeste 21 Sudoeste 0 -- -- 84
2019-11-03 04:00:00 13.9 6 Norte 9 Norte 0 -- -- 95
2019-11-03 03:00:00 14.2 0 Calma 8 Este 0.2 -- -- 94
2019-11-03 02:00:00 14.4 3 Nordeste 10 Nordeste 0 -- -- 92
2019-11-03 01:00:00 14.3 2 Nordeste 12 Norte 0 -- -- 91
2019-11-03 00:00:00 14.7 6 Norte 9 Norte 0 -- -- 88
2019-11-02 23:00:00 15.3 3 Norte 17 Nordeste 0 -- -- 87
2019-11-02 22:00:00 14.7 8 Nordeste 15 Nordeste 0 -- -- 91
2019-11-02 21:00:00 14.3 3 Nordeste 8 Norte 0 -- -- 91
2019-11-02 20:00:00 15.2 4 Nordeste 8 Nordeste 0 -- -- 87
2019-11-02 19:00:00 17.1 10 Nordeste 21 Nordeste 0 -- -- 83
2019-11-02 18:00:00 17.8 9 Nordeste 17 Norte 0 -- -- 82
2019-11-02 17:00:00 19.3 7 Nordeste 17 Nordeste 0 -- -- 76
2019-11-02 16:00:00 21.2 6 Nordeste 16 Sur 0 -- -- 69
2019-11-02 15:00:00 22.2 4 Sudoeste 18 Sudoeste 0 -- -- 60
2019-11-02 14:00:00 22.4 10 Sur 21 Sur 0 -- -- 58
2019-11-02 13:00:00 22.4 10 Sur 18 Sur 0 -- -- 62
2019-11-02 12:00:00 22 10 Sudoeste 15 Sur 0 -- -- 62
2019-11-02 11:00:00 20.5 8 Sur 11 Sur 0 -- -- 69
2019-11-02 10:00:00 18.2 0 Calma 3 Sudoeste 0 -- -- 77
2019-11-02 09:00:00 15.3 0 Calma 9 Norte 0 -- -- 87
2019-11-02 08:00:00 12.4 7 Nordeste 12 Norte 0 -- -- 92
2019-11-02 07:00:00 12.1 6 Nordeste 9 Nordeste 0 -- -- 93
2019-11-02 06:00:00 12.9 2 Norte 10 Nordeste 0 -- -- 92
2019-11-02 05:00:00 14 6 Nordeste 14 Nordeste 0 -- -- 93
2019-11-02 04:00:00 14.1 8 Nordeste 12 Nordeste 0 -- -- 94
2019-11-02 03:00:00 14.2 3 Nordeste 9 Nordeste 0.2 -- -- 94
2019-11-02 02:00:00 14.5 7 Nordeste 13 Noroeste 0.2 -- -- 94
2019-11-02 01:00:00 14.7 0 Calma 8 Este 0.6 -- -- 94
2019-11-02 00:00:00 14.9 6 Norte 11 Nordeste 0 -- -- 94
2019-11-01 23:00:00 13.9 3 Nordeste 7 Nordeste 0 -- -- 94
2019-11-01 22:00:00 14.3 2 Norte 7 Nordeste 0 -- -- 92
2019-11-01 21:00:00 15.2 4 Norte 9 Nordeste 0 -- -- 90
2019-11-01 20:00:00 15.6 6 Nordeste 9 Nordeste 0 -- -- 90
2019-11-01 19:00:00 15.2 4 Nordeste 8 Nordeste 0 -- -- 90
2019-11-01 18:00:00 16.5 0 Calma 6 Sur 0 -- -- 86
2019-11-01 17:00:00 17.4 2 Sur 11 Sur 0 -- -- 81
2019-11-01 16:00:00 18.4 6 Sur 13 Sur 0 -- -- 74
2019-11-01 15:00:00 19.1 7 Sur 13 Sur 0 -- -- 76
2019-11-01 14:00:00 19.4 3 Oeste 11 Sudoeste 0 -- -- 73
2019-11-01 13:00:00 19.2 5 Sudoeste 11 Sudoeste 0 -- -- 67
2019-11-01 12:00:00 19.1 7 Sudoeste 13 Sur 0 -- -- 65
2019-11-01 11:00:00 18.1 0 Calma 6 Sudoeste 0 -- -- 67
2019-11-01 10:00:00 15.7 3 Sudoeste 7 Sur 0 -- -- 78
2019-11-01 09:00:00 15.7 4 Nordeste 10 Nordeste 0 -- -- 77
2019-11-01 08:00:00 12.2 4 Nordeste 16 Nordeste 0 -- -- 88
2019-11-01 07:00:00 11.8 3 Nordeste 12 Nordeste 0 -- -- 88
2019-11-01 06:00:00 12.4 9 Nordeste 15 Nordeste 0 -- -- 85
2019-11-01 05:00:00 11.2 4 Nordeste 11 Norte 0 -- -- 87
2019-11-01 04:00:00 12.1 8 Nordeste 13 Nordeste 0 -- -- 84
2019-11-01 03:00:00 12.2 0 Calma 11 Norte 0 -- -- 81
2019-11-01 02:00:00 13.9 2 Norte 10 Nordeste 0 -- -- 72
2019-11-01 01:00:00 14.6 2 Nordeste 13 Sur 0 -- -- 71
2019-11-01 00:00:00 15.2 2 Noroeste 17 Este 0 -- -- 66
2019-10-31 23:00:00 15.9 7 Sudeste 17 Sur 0 -- -- 63
2019-10-31 22:00:00 17.8 7 Noroeste 24 Oeste 0 -- -- 57
2019-10-31 21:00:00 19.1 12 Noroeste 40 Norte 0 -- -- 51
2019-10-31 20:00:00 19.5 24 Norte 47 Noroeste 0 -- -- 51
2019-10-31 19:00:00 20.1 31 Norte 59 Norte 0 -- -- 50
2019-10-31 18:00:00 20.2 31 Norte 63 Norte 0 -- -- 52
2019-10-31 17:00:00 20.4 21 Norte 41 Norte 0 -- -- 54
2019-10-31 16:00:00 22.2 8 Norte 31 Norte 0 -- -- 52
2019-10-31 15:00:00 22.7 21 Noroeste 40 Noroeste 0 -- -- 52
2019-10-31 14:00:00 22.8 19 Noroeste 35 Noroeste 0 -- -- 52
2019-10-31 13:00:00 20.5 9 Oeste 27 Nordeste 0 -- -- 70
2019-10-31 12:00:00 19.7 9 Nordeste 30 Norte 0 -- -- 63
2019-10-31 11:00:00 18.4 10 Oeste 21 Oeste 0.2 -- -- 76
2019-10-31 10:00:00 17 2 Sudoeste 6 Sudeste 0 -- -- 89
2019-10-31 09:00:00 16.3 2 Sur 8 Norte 0 -- -- 89
2019-10-31 08:00:00 15.7 4 Nordeste 9 Norte 0 -- -- 89
2019-10-31 07:00:00 16.2 6 Sur 21 Norte 0 -- -- 86
2019-10-31 06:00:00 18.2 5 Norte 20 Norte 0.2 -- -- 72
2019-10-31 05:00:00 16.1 5 Nordeste 12 Nordeste 0 -- -- 84
2019-10-31 04:00:00 15.4 6 Nordeste 12 Nordeste 0 -- -- 86
2019-10-31 03:00:00 15.1 2 Nordeste 9 Norte 0 -- -- 88
2019-10-31 02:00:00 15.1 4 Norte 14 Nordeste 0 -- -- 87
2019-10-31 01:00:00 14.9 4 Norte 11 Nordeste 0 -- -- 89
2019-10-31 00:00:00 14.8 5 Nordeste 9 Este 0 -- -- 90
2019-10-30 23:00:00 15.1 3 Nordeste 14 Nordeste 0 -- -- 88
2019-10-30 22:00:00 15.3 5 Norte 14 Nordeste 0 -- -- 87
2019-10-30 21:00:00 15.2 3 Nordeste 12 Nordeste 0 -- -- 88
2019-10-30 20:00:00 16 5 Nordeste 13 Nordeste 0 -- -- 86
2019-10-30 19:00:00 17.1 8 Nordeste 10 Nordeste 0 -- -- 84
2019-10-30 18:00:00 18.5 8 Nordeste 11 Nordeste 0 -- -- 82
2019-10-30 17:00:00 21.6 2 Sur 10 Sur 0 -- -- 72
2019-10-30 16:00:00 22.8 6 Sur 10 Sudoeste 0 -- -- 64
2019-10-30 15:00:00 23.8 4 Sur 14 Oeste 0 -- -- 61
2019-10-30 14:00:00 23.6 5 Sur 14 Sudoeste 0 -- -- 58
2019-10-30 13:00:00 22.4 6 Sudoeste 17 Sur 0 -- -- 62
2019-10-30 12:00:00 22.6 6 Sur 13 Sur 0 -- -- 60
2019-10-30 11:00:00 21.5 3 Sudoeste 9 Oeste 0 -- -- 65
2019-10-30 10:00:00 19 3 Sudoeste 5 Oeste 0 -- -- 81
2019-10-30 09:00:00 16.3 0 Calma 6 Nordeste 0 -- -- 91
2019-10-30 08:00:00 13.7 3 Nordeste 10 Nordeste 0 -- -- 94
2019-10-30 07:00:00 13.3 5 Nordeste 9 Norte 0 -- -- 93
2019-10-30 06:00:00 12.9 0 Calma -- -- 0 -- -- 95
2019-10-30 05:00:00 13.3 0 Calma 2 Nordeste 0 -- -- 95
2019-10-30 04:00:00 13.9 4 Nordeste 12 Nordeste 0 -- -- 96
2019-10-30 03:00:00 13.8 3 Nordeste 10 Nordeste 0 -- -- 96
2019-10-30 02:00:00 13.6 3 Nordeste 6 Norte 0 -- -- 96
2019-10-30 01:00:00 13.7 0 Calma 9 Nordeste 0 -- -- 95
2019-10-30 00:00:00 13.9 3 Norte 12 Nordeste 0 -- -- 95
2019-10-29 23:00:00 14.4 6 Nordeste 12 Nordeste 0 -- -- 94
2019-10-29 22:00:00 14.4 5 Norte 12 Nordeste 0 -- -- 94
2019-10-29 21:00:00 14.7 2 Norte 10 Nordeste 0 -- -- 93
2019-10-29 20:00:00 15 4 Norte 8 Norte 0 -- -- 93
2019-10-29 19:00:00 15.9 3 Norte 6 Norte 0 -- -- 89
2019-10-29 18:00:00 18.6 2 Sudoeste 6 Sudoeste 0 -- -- 83
2019-10-29 17:00:00 20.4 3 Sur 6 Sur 0 -- -- 75
2019-10-29 16:00:00 20.5 4 Sur 12 Sur 0 -- -- 74
2019-10-29 15:00:00 20.6 10 Sur 16 Sudeste 0 -- -- 75
2019-10-29 14:00:00 21.1 6 Sur 14 Sur 0 -- -- 71
2019-10-29 13:00:00 21.5 5 Sur 12 Sur 0 -- -- 70
2019-10-29 12:00:00 21.2 6 Oeste 12 Sudoeste 0 -- -- 71
2019-10-29 11:00:00 19.9 4 Sudoeste 10 Sudoeste 0 -- -- 76
2019-10-29 10:00:00 18.1 3 Sur 6 Sur 0 -- -- 84
2019-10-29 09:00:00 15.5 2 Noroeste 14 Nordeste 0 -- -- 92
2019-10-29 08:00:00 13.3 9 Nordeste 14 Este 0 -- -- 94
2019-10-29 07:00:00 12.8 3 Norte 15 Nordeste 0 -- -- 93
2019-10-29 06:00:00 13.1 5 Nordeste 12 Nordeste 0 -- -- 93
2019-10-29 05:00:00 13.7 10 Nordeste 15 Nordeste 0 -- -- 94
2019-10-29 04:00:00 13.8 2 Nordeste 12 Nordeste 0 -- -- 94
2019-10-29 03:00:00 14.5 0 Calma -- -- 0 -- -- 94
2019-10-29 02:00:00 15 0 Calma -- -- 0 -- -- 94
2019-10-29 01:00:00 15.2 0 Calma -- -- 0 -- -- 93
2019-10-29 00:00:00 15 0 Calma -- -- 0 -- -- 94
2019-10-28 23:00:00 15.1 0 Calma -- -- 0 -- -- 93
2019-10-28 22:00:00 15.3 0 Calma 0 Calma 0 -- -- 93
2019-10-28 21:00:00 15.9 0 Calma 5 Este 0 -- -- 92
2019-10-28 20:00:00 16.5 0 Calma 8 Este 0 -- -- 90
2019-10-28 19:00:00 16.9 8 Nordeste 12 Nordeste 0 -- -- 89
2019-10-28 18:00:00 17 4 Nordeste 6 Nordeste 0 -- -- 85
2019-10-28 17:00:00 18.2 4 Sudoeste 10 Sur 0 -- -- 76
2019-10-28 16:00:00 19.1 5 Sur 9 Sur 0 -- -- 74
2019-10-28 15:00:00 19 4 Sur 12 Sur 0 -- -- 73
2019-10-28 14:00:00 19.1 7 Sudoeste 10 Sur 0 -- -- 74
2019-10-28 13:00:00 18.7 6 Sur 14 Sur 0 -- -- 75
2019-10-28 12:00:00 18.6 7 Sur 12 Sur 0 -- -- 74
2019-10-28 11:00:00 18.3 0 Calma -- -- 0 -- -- 79
2019-10-28 10:00:00 17.5 0 Calma -- -- 0 -- -- 85
2019-10-28 09:00:00 15.3 0 Calma -- -- 0 -- -- 94
2019-10-28 08:00:00 14.5 0 Calma -- -- 0 -- -- 95
2019-10-28 07:00:00 14.5 0 Calma -- -- 0 -- -- 94
2019-10-28 06:00:00 15 0 Calma -- -- 0 -- -- 95
2019-10-28 05:00:00 15.3 0 Calma -- -- 0 -- -- 95
2019-10-28 04:00:00 15.2 0 Calma -- -- 0 -- -- 95
2019-10-28 03:00:00 15.2 0 Calma 0 Calma 0 -- -- 94
2019-10-28 02:00:00 15.3 0 Calma 7 Norte 0 -- -- 94
2019-10-28 01:00:00 14.9 5 Nordeste 11 Nordeste 0 -- -- 95
2019-10-28 00:00:00 14.2 6 Nordeste 12 Nordeste 0 -- -- 94
2019-10-27 23:00:00 14.4 5 Nordeste 13 Nordeste 0 -- -- 94
2019-10-27 22:00:00 14.3 6 Nordeste 12 Nordeste 0 -- -- 94
2019-10-27 21:00:00 14.7 5 Nordeste 10 Nordeste 0 -- -- 93
2019-10-27 20:00:00 15.2 3 Nordeste 7 Nordeste 0 -- -- 92
2019-10-27 19:00:00 16.1 3 Nordeste 8 Norte 0 -- -- 91
2019-10-27 18:00:00 17.6 3 Norte 8 Sur 0 -- -- 89
2019-10-27 17:00:00 18.8 6 Sur 15 Sur 0 -- -- 85
2019-10-27 16:00:00 20 11 Sur 22 Sur 0 -- -- 78
2019-10-27 15:00:00 22 10 Sur 21 Sudeste 0 -- -- 69
2019-10-27 14:00:00 21.9 6 Sur 14 Sur 0 -- -- 66
2019-10-27 13:00:00 21.7 8 Oeste 15 Sur 0 -- -- 66
2019-10-27 12:00:00 21.1 5 Sur 12 Sur 0 -- -- 64
2019-10-27 11:00:00 20 4 Sudoeste 10 Sur 0 -- -- 69
2019-10-27 10:00:00 17.5 4 Sur 6 Sur 0 -- -- 83
2019-10-27 09:00:00 14.8 3 Sudoeste 6 Este 0 -- -- 93
2019-10-27 08:00:00 12.3 3 Nordeste 12 Nordeste 0 -- -- 96
2019-10-27 07:00:00 11.5 4 Nordeste 9 Este 0 -- -- 96
2019-10-27 06:00:00 11.1 0 Calma 9 Sudoeste 0 -- -- 95
2019-10-27 05:00:00 12.2 4 Oeste 13 Este 0 -- -- 94
2019-10-27 04:00:00 12.6 3 Norte 13 Nordeste 0 -- -- 94
2019-10-27 03:00:00 13 13 Nordeste 16 Nordeste 0 -- -- 94
2019-10-27 02:00:00 13.1 5 Nordeste 12 Nordeste 0 -- -- 94
2019-10-27 01:00:00 13.3 8 Nordeste 14 Nordeste 0 -- -- 94
2019-10-27 00:00:00 13.6 3 Norte 11 Nordeste 0 -- -- 93
2019-10-26 23:00:00 14.1 6 Nordeste 12 Nordeste 0 -- -- 94
2019-10-26 22:00:00 14.6 3 Nordeste 12 Nordeste 0 -- -- 93
2019-10-26 21:00:00 14.9 4 Nordeste 10 Nordeste 0 -- -- 92
2019-10-26 20:00:00 16 6 Norte 8 Norte 0 -- -- 90
2019-10-26 19:00:00 18.4 4 Sudoeste 11 Sur 0 -- -- 82
2019-10-26 18:00:00 20.6 6 Sur 15 Sur 0 -- -- 71
2019-10-26 17:00:00 21.4 10 Sur 21 Sudeste 0 -- -- 68
2019-10-26 16:00:00 21.7 11 Sudeste 24 Sur 0 -- -- 65
2019-10-26 15:00:00 22.2 11 Sur 19 Sur 0 -- -- 62
2019-10-26 14:00:00 22.6 12 Sur 19 Sur 0 -- -- 53
2019-10-26 13:00:00 22.7 8 Sur 16 Oeste 0 -- -- 52
2019-10-26 12:00:00 22.2 4 Sur 7 Sudeste 0 -- -- 51
2019-10-26 11:00:00 19.7 3 Sur 5 Sur 0 -- -- 58
2019-10-26 10:00:00 16.6 0 Calma 5 Nordeste 0 -- -- 72
2019-10-26 09:00:00 12.7 4 Nordeste 12 Norte 0 -- -- 83
2019-10-26 08:00:00 11.5 4 Nordeste 12 Nordeste 0 -- -- 83
2019-10-26 07:00:00 11.5 4 Norte 9 Norte 0 -- -- 81
2019-10-26 06:00:00 11.7 3 Nordeste 13 Nordeste 0 -- -- 80
2019-10-26 05:00:00 11.7 6 Norte 12 Nordeste 0 -- -- 79
2019-10-26 04:00:00 12.3 3 Norte 19 Nordeste 0 -- -- 75
2019-10-26 03:00:00 12.1 5 Norte 13 Nordeste 0 -- -- 76
2019-10-26 02:00:00 11.5 3 Norte 12 Este 0 -- -- 80
2019-10-26 01:00:00 12.2 5 Norte 17 Nordeste 0 -- -- 78
2019-10-26 00:00:00 12.1 4 Nordeste 15 Nordeste 0 -- -- 78
2019-10-25 23:00:00 12.4 4 Nordeste 13 Nordeste 0 -- -- 78
2019-10-25 22:00:00 13 9 Nordeste 18 Nordeste 0 -- -- 72
2019-10-25 21:00:00 13.5 7 Nordeste 14 Nordeste 0 -- -- 69
2019-10-25 20:00:00 15.6 0 Calma 12 Norte 0 -- -- 70
2019-10-25 19:00:00 19.3 8 Nordeste 16 Este 0 -- -- 49
2019-10-25 18:00:00 22.2 9 Nordeste 19 Nordeste 0 -- -- 42
2019-10-25 17:00:00 24.2 4 Noroeste 19 Nordeste 0 -- -- 35
2019-10-25 16:00:00 23.6 8 Nordeste 35 Norte 0 -- -- 37
2019-10-25 15:00:00 23 20 Norte 41 Nordeste 0 -- -- 39
2019-10-25 14:00:00 22.8 18 Norte 32 Nordeste 0 -- -- 41
2019-10-25 13:00:00 21.7 20 Norte 39 Norte 0 -- -- 44
2019-10-25 12:00:00 20.6 18 Norte 46 Norte 0 -- -- 49
2019-10-25 11:00:00 19.2 22 Norte 43 Norte 0 -- -- 52
2019-10-25 10:00:00 18.3 21 Nordeste 45 Norte 0 -- -- 54
2019-10-25 09:00:00 13.1 10 Oeste 22 Sudoeste 0 -- -- 71
2019-10-25 08:00:00 11.1 4 Nordeste 13 Norte 0 -- -- 78
2019-10-25 07:00:00 12.2 7 Nordeste 13 Norte 0 -- -- 74
2019-10-25 06:00:00 13.3 6 Noroeste 12 Oeste 0 -- -- 69
2019-10-25 05:00:00 15.3 5 Noroeste 15 Sudoeste 0 -- -- 60
2019-10-25 04:00:00 16.3 10 Sudoeste 36 Sudoeste 0 -- -- 57
2019-10-25 03:00:00 15.3 4 Noroeste 27 Sudeste 0 -- -- 67
2019-10-25 02:00:00 17.3 13 Norte 31 Noroeste 0 -- -- 64
2019-10-25 01:00:00 16.8 15 Noroeste 29 Noroeste 0 -- -- 67
2019-10-25 00:00:00 15.4 6 Norte 18 Noroeste 0 -- -- 72
2019-10-24 23:00:00 15.9 8 Norte 24 Noroeste 0 -- -- 69
2019-10-24 22:00:00 16.6 12 Noroeste 24 Norte 0 -- -- 68
2019-10-24 21:00:00 16.8 13 Norte 23 Nordeste 0 -- -- 66
2019-10-24 20:00:00 15.1 5 Nordeste 9 Este 0 -- -- 76
2019-10-24 19:00:00 17.1 2 Norte 19 Norte 0 -- -- 65
2019-10-24 18:00:00 18.9 9 Norte 19 Norte 0 -- -- 58
2019-10-24 17:00:00 18.5 6 Nordeste 20 Este 0 -- -- 63
2019-10-24 16:00:00 19 11 Este 25 Este 0 -- -- 62
2019-10-24 15:00:00 20.2 15 Este 23 Este 0 -- -- 58
2019-10-24 14:00:00 20.5 6 Este 14 Sur 0 -- -- 55
2019-10-24 13:00:00 19.6 3 Sudoeste 11 Sudoeste 0 -- -- 55
2019-10-24 12:00:00 18.7 4 Sur 8 Sudoeste 0 -- -- 61
2019-10-24 11:00:00 16.3 3 Sudoeste 6 Sudoeste 0 -- -- 77
2019-10-24 10:00:00 13.5 4 Este 12 Nordeste 0 -- -- 87
2019-10-24 09:00:00 10.1 9 Nordeste 16 Nordeste 0 -- -- 96
2019-10-24 08:00:00 8.8 8 Nordeste 10 Nordeste 0 -- -- 96
2019-10-24 07:00:00 9.1 0 Calma 9 Nordeste 0 -- -- 95
2019-10-24 06:00:00 9.4 4 Nordeste 10 Norte 0 -- -- 96
2019-10-24 05:00:00 9.6 3 Norte 14 Nordeste 0 -- -- 95
2019-10-24 04:00:00 9.9 6 Nordeste 15 Nordeste 0 -- -- 95
2019-10-24 03:00:00 10.2 8 Nordeste 14 Nordeste 0 -- -- 95
2019-10-24 02:00:00 10.5 8 Nordeste 13 Nordeste 0 -- -- 95
2019-10-24 01:00:00 11.2 6 Nordeste 14 Nordeste 0 -- -- 94
2019-10-24 00:00:00 12 4 Nordeste 14 Nordeste 0 -- -- 93
2019-10-23 23:00:00 12.7 2 Nordeste 15 Sudeste 0 -- -- 90
2019-10-23 22:00:00 13.8 10 Sudeste 16 Sudeste 0 -- -- 89
2019-10-23 21:00:00 14.2 8 Este 14 Sudeste 0 -- -- 89
2019-10-23 20:00:00 15.3 9 Sudeste 14 Sur 0 -- -- 87
2019-10-23 19:00:00 16.5 2 Este 9 Sur 0 -- -- 91
2019-10-23 18:00:00 17.2 7 Sudeste 15 Sudeste 0 -- -- 90
2019-10-23 17:00:00 16.9 5 Sur 15 Sudeste 0 -- -- 89
2019-10-23 16:00:00 17.1 8 Sudeste 19 Sudeste 0.8 -- -- 90
2019-10-23 15:00:00 17.3 8 Sur 17 Sudeste 0 -- -- 89
2019-10-23 14:00:00 16.8 9 Sur 16 Sur 0 -- -- 91
2019-10-23 13:00:00 15.6 3 Noroeste 14 Noroeste 0.8 -- -- 96
2019-10-23 12:00:00 15.3 4 Norte 19 Nordeste 1.6 -- -- 96
2019-10-23 11:00:00 14.9 9 Este 27 Sudoeste 5.2 -- -- 96
2019-10-23 10:00:00 15.2 8 Nordeste 17 Este 2 -- -- 96
2019-10-23 09:00:00 15.1 9 Noroeste 23 Sudeste 5.6 -- -- 96
2019-10-23 08:00:00 15.3 0 Calma 13 Este 1 -- -- 96
2019-10-23 07:00:00 15.5 5 Noroeste 18 Noroeste 1.8 -- -- 96
2019-10-23 06:00:00 15.7 11 Este 24 Norte 2 -- -- 96
2019-10-23 05:00:00 15.6 6 Norte 34 Este 13.8 -- -- 97
2019-10-23 04:00:00 15 17 Este 80 Sudoeste 71.6 -- -- 96
2019-10-23 03:00:00 19.1 28 Este 66 Este 0.8 -- -- 91
2019-10-23 02:00:00 19.1 18 Este 50 Este 3 -- -- 91
2019-10-23 01:00:00 19.1 23 Este 41 Este 0.2 -- -- 91
2019-10-23 00:00:00 19 22 Este 47 Sudeste 0 -- -- 93
2019-10-22 23:00:00 19.1 17 Este 47 Sudeste 0 -- -- 93
2019-10-22 22:00:00 19.1 23 Este 53 Este 0.4 -- -- 93
2019-10-22 21:00:00 18.9 18 Este 38 Este 0 -- -- 94
2019-10-22 20:00:00 18.5 13 Este 35 Este 1.8 -- -- 95
2019-10-22 19:00:00 16.3 8 Nordeste 19 Nordeste 11.8 -- -- 94
2019-10-22 18:00:00 16 15 Nordeste 36 Oeste 25.6 -- -- 94
2019-10-22 17:00:00 16.1 14 Noroeste 35 Nordeste 12.4 -- -- 95
2019-10-22 16:00:00 15.9 15 Nordeste 41 Nordeste 12.8 -- -- 93
2019-10-22 15:00:00 16.2 24 Nordeste 52 Nordeste 0 -- -- 87
2019-10-22 14:00:00 18.1 15 Nordeste 38 Nordeste 0 -- -- 79
2019-10-22 13:00:00 16.6 18 Nordeste 43 Nordeste 0.6 -- -- 84
2019-10-22 12:00:00 15.7 19 Nordeste 37 Nordeste 2.8 -- -- 88
2019-10-22 11:00:00 15.4 11 Nordeste 28 Nordeste 2 -- -- 89
2019-10-22 10:00:00 15 12 Nordeste 21 Nordeste 1.8 -- -- 91
2019-10-22 09:00:00 13.7 4 Oeste 8 Norte 1.8 -- -- 94
2019-10-22 08:00:00 14.1 5 Sudoeste 15 Este 0 -- -- 90
2019-10-22 07:00:00 13.9 4 Norte 15 Norte 0 -- -- 90
2019-10-22 06:00:00 13.6 7 Nordeste 12 Norte 0.8 -- -- 93
2019-10-22 05:00:00 14.1 6 Nordeste 15 Nordeste 0.4 -- -- 89
2019-10-22 04:00:00 14.2 8 Nordeste 15 Nordeste 0 -- -- 87
2019-10-22 03:00:00 14.2 0 Calma 15 Nordeste 0 -- -- 86
2019-10-22 02:00:00 14.1 11 Nordeste 16 Nordeste 0 -- -- 85
2019-10-22 01:00:00 13.2 9 Nordeste 15 Nordeste 0 -- -- 89
2019-10-22 00:00:00 12.8 5 Nordeste 13 Nordeste 0 -- -- 92
2019-10-21 23:00:00 12.7 0 Calma 12 Nordeste 0 -- -- 93
2019-10-21 22:00:00 13.1 3 Norte 12 Norte 0 -- -- 93
2019-10-21 21:00:00 13.4 7 Nordeste 11 Nordeste 0 -- -- 93
2019-10-21 20:00:00 14.2 5 Nordeste 7 Nordeste 0.4 -- -- 92
2019-10-21 19:00:00 14.9 2 Noroeste 6 Este 0.4 -- -- 89
2019-10-21 18:00:00 15.4 0 Calma 12 Sur 0 -- -- 80
2019-10-21 17:00:00 15.9 9 Sur 14 Sudeste 0 -- -- 73
2019-10-21 16:00:00 16.9 6 Sudeste 13 Sur 0 -- -- 68
2019-10-21 15:00:00 15.7 4 Nordeste 14 Noroeste 0 -- -- 82
2019-10-21 14:00:00 16.3 2 Noroeste 14 Sudoeste 0 -- -- 74
2019-10-21 13:00:00 16.7 5 Sudoeste 10 Sudoeste 0 -- -- 72
2019-10-21 12:00:00 16.4 3 Sudeste 10 Sudoeste 0 -- -- 71
2019-10-21 11:00:00 16.1 2 Sudoeste 12 Nordeste 0 -- -- 67
2019-10-21 10:00:00 15.1 8 Nordeste 14 Nordeste 0 -- -- 71
2019-10-21 09:00:00 13.9 6 Norte 9 Nordeste 0 -- -- 73
2019-10-21 08:00:00 13.5 2 Norte 7 Nordeste 0 -- -- 80
2019-10-21 07:00:00 14.9 2 Nordeste 12 Nordeste 0 -- -- 76
2019-10-21 06:00:00 15.1 8 Nordeste 15 Nordeste 0 -- -- 73
2019-10-21 05:00:00 14.5 12 Nordeste 19 Norte 0 -- -- 76
2019-10-21 04:00:00 15.1 13 Nordeste 19 Nordeste 0 -- -- 74
2019-10-21 03:00:00 14.8 13 Nordeste 19 Nordeste 0 -- -- 78
2019-10-21 02:00:00 14.1 11 Nordeste 15 Norte 0 -- -- 82
2019-10-21 01:00:00 13.7 4 Norte 11 Nordeste 0 -- -- 85
2019-10-21 00:00:00 13.6 2 Norte 8 Nordeste 0 -- -- 87
2019-10-20 23:00:00 14.4 4 Norte 10 Noroeste 0 -- -- 84
2019-10-20 22:00:00 15.8 2 Sur 11 Este 0 -- -- 79
2019-10-20 21:00:00 15.6 5 Este 11 Este 0 -- -- 79
2019-10-20 20:00:00 15.4 0 Calma 13 Noroeste 0 -- -- 78
2019-10-20 19:00:00 18.7 3 Sur 20 Sudoeste 0 -- -- 62
2019-10-20 18:00:00 20.7 12 Sudoeste 30 Oeste 0 -- -- 55
2019-10-20 17:00:00 22 19 Oeste 40 Oeste 0.2 -- -- 50
2019-10-20 16:00:00 21.3 16 Sudoeste 31 Sudoeste 0 -- -- 71
2019-10-20 15:00:00 20.3 17 Oeste 30 Oeste 2 -- -- 76
2019-10-20 14:00:00 22.8 15 Sudoeste 33 Sudoeste 0.8 -- -- 78
2019-10-20 13:00:00 23.6 17 Sudoeste 40 Sudoeste 0 -- -- 71
2019-10-20 12:00:00 23.6 15 Sudoeste 35 Sudoeste 0 -- -- 74
2019-10-20 11:00:00 21.6 16 Sudoeste 32 Sudoeste 0 -- -- 86
2019-10-20 10:00:00 19.3 11 Sur 20 Sur 0.2 -- -- 94
2019-10-20 09:00:00 18.3 7 Sudoeste 32 Sur 3.4 -- -- 93
2019-10-20 08:00:00 18.9 8 Sudeste 21 Sur 0.8 -- -- 93
2019-10-20 07:00:00 19.1 11 Sur 20 Sur 0 -- -- 94
2019-10-20 06:00:00 18.7 8 Sur 23 Sur 0 -- -- 95
2019-10-20 05:00:00 18.3 16 Sur 25 Sudeste 0 -- -- 96
2019-10-20 04:00:00 16.4 3 Este 9 Sur 0 -- -- 94
2019-10-20 03:00:00 16 5 Sur 9 Oeste 0 -- -- 94
2019-10-20 02:00:00 15.9 0 Calma 9 Noroeste 0 -- -- 92
2019-10-20 01:00:00 16.4 2 Noroeste 7 Nordeste 0 -- -- 89
2019-10-20 00:00:00 16.6 6 Nordeste 9 Norte 0 -- -- 88
2019-10-19 23:00:00 18.3 3 Sur 12 Sudoeste 0 -- -- 83
2019-10-19 22:00:00 18.9 7 Sudoeste 15 Sudoeste 0 -- -- 81
2019-10-19 21:00:00 19.7 7 Sudeste 25 Sur 0 -- -- 76
2019-10-19 20:00:00 20.7 13 Sur 28 Sur 0 -- -- 71
2019-10-19 19:00:00 22.4 21 Sur 43 Sur 0 -- -- 65
2019-10-19 18:00:00 25 28 Sur 46 Sur 0 -- -- 51
2019-10-19 17:00:00 26.2 25 Sur 49 Sur 0 -- -- 52
2019-10-19 16:00:00 27.4 24 Sur 47 Sudoeste 0 -- -- 52
2019-10-19 15:00:00 27.8 25 Sudoeste 49 Sudoeste 0 -- -- 45
2019-10-19 14:00:00 27.6 24 Sudoeste 40 Sudoeste 0 -- -- 43
2019-10-19 13:00:00 26.3 21 Sudoeste 41 Sur 0 -- -- 47
2019-10-19 12:00:00 23.4 6 Sur 19 Sur 0 -- -- 60
2019-10-19 11:00:00 21.7 4 Sudeste 13 Sur 0 -- -- 63
2019-10-19 10:00:00 19.1 3 Sudeste 12 Nordeste 0 -- -- 74
2019-10-19 09:00:00 15.5 10 Nordeste 15 Nordeste 0 -- -- 86
2019-10-19 08:00:00 14 9 Nordeste 13 Nordeste 0 -- -- 89
2019-10-19 07:00:00 13.9 4 Nordeste 13 Nordeste 0 -- -- 90
2019-10-19 06:00:00 13.9 7 Nordeste 10 Norte 0 -- -- 91
2019-10-19 05:00:00 13.4 4 Nordeste 7 Sur 0 -- -- 90
2019-10-19 04:00:00 14.9 0 Calma 16 Nordeste 0 -- -- 87
2019-10-19 03:00:00 15 5 Norte 6 Norte 0 -- -- 87
2019-10-19 02:00:00 14.9 2 Nordeste 8 Norte 0 -- -- 85
2019-10-19 01:00:00 14.9 0 Calma 6 Nordeste 0 -- -- 84
2019-10-19 00:00:00 14.9 2 Norte 6 Norte 0 -- -- 83
2019-10-18 23:00:00 16.1 0 Calma 9 Norte 0 -- -- 78
2019-10-18 22:00:00 16.9 2 Sudeste 11 Nordeste 0 -- -- 76
2019-10-18 21:00:00 17.3 8 Nordeste 12 Norte 0 -- -- 74
2019-10-18 20:00:00 18.3 3 Noroeste 6 Sudoeste 0 -- -- 72
2019-10-18 19:00:00 19.7 4 Este 10 Nordeste 0 -- -- 66
2019-10-18 18:00:00 20.8 6 Nordeste 17 Nordeste 0 -- -- 59
2019-10-18 17:00:00 21.5 10 Nordeste 17 Nordeste 0 -- -- 58
2019-10-18 16:00:00 21.7 9 Sur 19 Sur 0 -- -- 58
2019-10-18 15:00:00 22.4 12 Sur 18 Sur 0 -- -- 58
2019-10-18 14:00:00 22 11 Sur 21 Sudoeste 0 -- -- 60
2019-10-18 13:00:00 22.9 6 Sudoeste 13 Sudoeste 0 -- -- 53
2019-10-18 12:00:00 21 4 Sudoeste 10 Sudoeste 0 -- -- 64
2019-10-18 11:00:00 18.6 2 Sudoeste 4 Sudoeste 0 -- -- 75
2019-10-18 10:00:00 15.5 0 Calma 5 Sur 0 -- -- 85
2019-10-18 09:00:00 13.9 0 Calma 10 Nordeste 0 -- -- 92
2019-10-18 08:00:00 13.2 5 Norte 12 Nordeste 0 -- -- 90
2019-10-18 07:00:00 13.2 2 Norte 15 Nordeste 0 -- -- 90
2019-10-18 06:00:00 13.1 3 Nordeste 12 Nordeste 0 -- -- 91
2019-10-18 05:00:00 13.1 3 Nordeste 10 Norte 0 -- -- 91
2019-10-18 04:00:00 13.3 4 Nordeste 9 Norte 0 -- -- 90
2019-10-18 03:00:00 13.7 3 Nordeste 12 Norte 0 -- -- 87
2019-10-18 02:00:00 14.3 6 Nordeste 11 Nordeste 0 -- -- 86
2019-10-18 01:00:00 15.1 8 Norte 15 Nordeste 0 -- -- 84
2019-10-18 00:00:00 15.8 7 Nordeste 17 Nordeste 0 -- -- 80